ADDS METAR Data INFO
IDs: Format: Raw Decoded Include TAF

Data at: 1144 UTC 17 Jul 2018

KAQR 171135Z AUTO 00000KT 10SM CLR 23/20 A3000 RMK AO2
KAQR 171115Z AUTO 00000KT 10SM CLR 23/20 A3000 RMK AO2
KAQR 171055Z AUTO 00000KT 10SM CLR 24/20 A3000 RMK AO2
KAQR 171035Z AUTO 13003KT 10SM CLR 24/20 A2999 RMK AO2
KAQR 171015Z AUTO 00000KT 10SM SCT090 24/20 A3000 RMK AO2
KAQR 170955Z AUTO 00000KT 10SM SCT090 25/20 A3000 RMK AO2
KAQR 170935Z AUTO 00000KT 10SM CLR 25/20 A2999 RMK AO2
KAQR 170915Z AUTO 14003KT 10SM CLR 25/20 A2999 RMK AO2
KAQR 170855Z AUTO 00000KT 10SM SCT090 25/20 A2999 RMK AO2
KAQR 170835Z AUTO 12003KT 10SM SCT090 25/20 A2999 RMK AO2
KAQR 170815Z AUTO 00000KT 10SM CLR 25/20 A2999 RMK AO2
KAQR 170755Z AUTO 00000KT 10SM CLR 25/20 A2999 RMK AO2
KAQR 170735Z AUTO 00000KT 10SM CLR 26/20 A3000 RMK AO2
KAQR 170715Z AUTO 00000KT 10SM CLR 26/20 A3000 RMK AO2
KAQR 170655Z AUTO 00000KT 10SM CLR 26/20 A3000 RMK AO2
KAQR 170635Z AUTO 13003KT 10SM CLR 26/20 A3000 RMK AO2
KAQR 170615Z AUTO 00000KT 10SM CLR 27/20 A3000 RMK AO2 LTG DSNT NW
KAQR 170555Z AUTO 14003KT 10SM CLR 27/20 A3000 RMK AO2
KAQR 170535Z AUTO 00000KT 10SM CLR 27/20 A3000 RMK AO2
KAQR 170515Z AUTO 00000KT 10SM CLR 27/20 A3000 RMK AO2
KAQR 170455Z AUTO 00000KT 10SM CLR 28/20 A3000 RMK AO2
KAQR 170435Z AUTO 00000KT 10SM CLR 28/20 A3000 RMK AO2
KAQR 170415Z AUTO 00000KT 10SM CLR 28/20 A3000 RMK AO2
KAQR 170355Z AUTO 00000KT 10SM CLR 29/20 A3000 RMK AO2
KAQR 170335Z AUTO 00000KT 10SM CLR 29/20 A3000 RMK AO2
KAQR 170315Z AUTO 12005KT 10SM CLR 30/20 A3000 RMK AO2
KAQR 170255Z AUTO 11003KT 10SM CLR 30/20 A2999 RMK AO2
KAQR 170235Z AUTO 11003KT 10SM CLR 31/20 A2998 RMK AO2
KAQR 170215Z AUTO 11005KT 10SM CLR 31/20 A2997 RMK AO2
KAQR 170155Z AUTO 08006KT 10SM CLR 32/20 A2997 RMK AO2
KAQR 170135Z AUTO 00000KT 10SM CLR 33/18 A2996 RMK AO2
KAQR 170115Z AUTO 18003KT 7SM CLR 34/18 A2995 RMK AO2
KAQR 170055Z AUTO 18003KT 10SM CLR 35/18 A2994 RMK AO2
KAQR 170035Z AUTO 19005KT 10SM CLR 36/18 A2994 RMK AO2
KAQR 170015Z AUTO 19006KT 10SM CLR 36/17 A2993 RMK AO2
KAQR 162355Z AUTO 00000KT 10SM CLR 37/16 A2993 RMK AO2
KAQR 162335Z AUTO 22003KT 10SM CLR 37/16 A2994 RMK AO2
KAQR 162315Z AUTO 00000KT 10SM CLR 37/16 A2994 RMK AO2 LTG DSNT NE
KAQR 162255Z AUTO 20003KT 10SM CLR 37/17 A2994 RMK AO2
KAQR 162235Z AUTO 00000KT 10SM CLR 37/16 A2994 RMK AO2
KAQR 162215Z AUTO 20005KT 10SM CLR 37/17 A2994 RMK AO2
KAQR 162155Z AUTO 25005KT 10SM CLR 37/16 A2994 RMK AO2
KAQR 162135Z AUTO 20004KT 10SM CLR 37/16 A2995 RMK AO2
KAQR 162115Z AUTO 21006KT 10SM CLR 37/17 A2995 RMK AO2 LTG DSNT E
KAQR 162055Z AUTO 23007KT 10SM CLR 37/17 A2995 RMK AO2 LTG DSNT NE
KAQR 162035Z AUTO 24006KT 10SM SCT065 37/17 A2997 RMK AO2
KAQR 162015Z AUTO 19005KT 7SM SCT065 37/17 A2997 RMK AO2
KAQR 161955Z AUTO 19005KT 7SM SCT065 36/17 A2998 RMK AO2
KAQR 161935Z AUTO 20005KT 10SM CLR 37/17 A2999 RMK AO2
KAQR 161915Z AUTO 21007KT 10SM CLR 36/17 A3000 RMK AO2
KAQR 161855Z AUTO 19003KT 7SM CLR 36/18 A3000 RMK AO2
KAQR 161835Z AUTO 25003KT 7SM CLR 36/18 A3002 RMK AO2
KAQR 161815Z AUTO 19004KT 7SM CLR 35/19 A3002 RMK AO2
KAQR 161755Z AUTO 00000KT 7SM CLR 35/19 A3002 RMK AO2
KAQR 161735Z AUTO 00000KT 7SM CLR 35/19 A3002 RMK AO2
KAQR 161715Z AUTO 17005KT 7SM CLR 34/20 A3002 RMK AO2
KAQR 161655Z AUTO 00000KT 7SM CLR 33/20 A3003 RMK AO2
KAQR 161635Z AUTO 00000KT 7SM CLR 33/20 A3003 RMK AO2
KAQR 161615Z AUTO 00000KT 7SM CLR 33/20 A3003 RMK AO2
KAQR 161555Z AUTO 21003KT 7SM CLR 32/20 A3004 RMK AO2
KAQR 161535Z AUTO 19005KT 7SM CLR 32/20 A3004 RMK AO2
KAQR 161515Z AUTO 21006KT 7SM CLR 31/20 A3004 RMK AO2
KAQR 161455Z AUTO 23005KT 10SM CLR 30/21 A3004 RMK AO2
KAQR 161435Z AUTO 22005KT 7SM CLR 30/20 A3004 RMK AO2
KAQR 161415Z AUTO 22005KT 10SM CLR 29/20 A3004 RMK AO2
KAQR 161355Z AUTO 19005KT 10SM CLR 28/20 A3003 RMK AO2
KAQR 161335Z AUTO 20003KT 10SM CLR 27/20 A3002 RMK AO2
KAQR 161315Z AUTO 18003KT 10SM CLR 27/20 A3002 RMK AO2
KAQR 161255Z AUTO 00000KT 10SM CLR 26/20 A3001 RMK AO2
KAQR 161235Z AUTO 00000KT 10SM CLR 25/20 A3001 RMK AO2
KAQR 161215Z AUTO 00000KT 10SM CLR 23/20 A3001 RMK AO2
KAQR 161155Z AUTO 00000KT 10SM CLR 23/20 A3000 RMK AO2
KAQR 161135Z AUTO 00000KT 10SM CLR 23/20 A3000 RMK AO2 LTG DSNT NE
KAQR 161115Z AUTO 00000KT 10SM CLR 22/20 A3000 RMK AO2
KAQR 161055Z AUTO 00000KT 10SM CLR 23/20 A2999 RMK AO2
KAQR 161035Z AUTO 00000KT 10SM CLR 23/20 A2999 RMK AO2
KAQR 161015Z AUTO 00000KT 10SM CLR 23/20 A2999 RMK AO2
KAQR 160955Z AUTO 00000KT 10SM CLR 23/20 A2999 RMK AO2
KAQR 160935Z AUTO 00000KT 10SM CLR 23/20 A2999 RMK AO2
KAQR 160915Z AUTO 00000KT 10SM CLR 24/20 A2998 RMK AO2
KAQR 160855Z AUTO 00000KT 10SM CLR 24/20 A2998 RMK AO2
KAQR 160835Z AUTO 00000KT 10SM CLR 25/20 A2998 RMK AO2
KAQR 160815Z AUTO 00000KT 10SM CLR 25/20 A2998 RMK AO2
KAQR 160755Z AUTO 00000KT 10SM CLR 25/20 A2998 RMK AO2
KAQR 160735Z AUTO 00000KT 10SM CLR 25/19 A2999 RMK AO2
KAQR 160715Z AUTO 00000KT 10SM CLR 26/19 A2999 RMK AO2 LTG DSNT N
KAQR 160655Z AUTO 00000KT 10SM CLR 26/19 A2999 RMK AO2
KAQR 160635Z AUTO 00000KT 10SM CLR 26/19 A2999 RMK AO2
KAQR 160615Z AUTO 00000KT 10SM CLR 27/18 A3000 RMK AO2
KAQR 160555Z AUTO 00000KT 10SM CLR 28/18 A3000 RMK AO2
KAQR 160535Z AUTO 00000KT 10SM CLR 28/18 A2999 RMK AO2
KAQR 160515Z AUTO 17003KT 10SM CLR 29/18 A2999 RMK AO2
KAQR 160455Z AUTO 00000KT 10SM CLR 29/18 A2999 RMK AO2
KAQR 160435Z AUTO 17003KT 10SM CLR 30/18 A2998 RMK AO2
KAQR 160415Z AUTO 16003KT 10SM CLR 29/18 A2998 RMK AO2
KAQR 160355Z AUTO 00000KT 10SM CLR 28/19 A2998 RMK AO2
KAQR 160335Z AUTO 00000KT 10SM CLR 30/18 A2998 RMK AO2
KAQR 160315Z AUTO 00000KT 10SM CLR 30/18 A2998 RMK AO2
KAQR 160255Z AUTO 00000KT 10SM CLR 30/19 A2997 RMK AO2
KAQR 160235Z AUTO 00000KT 10SM CLR 30/19 A2996 RMK AO2
KAQR 160215Z AUTO 00000KT 10SM CLR 31/19 A2995 RMK AO2
KAQR 160155Z AUTO 00000KT 10SM CLR 31/18 A2995 RMK AO2
KAQR 160135Z AUTO 00000KT 10SM CLR 32/18 A2994 RMK AO2
KAQR 160115Z AUTO 16003KT 10SM CLR 33/18 A2993 RMK AO2
KAQR 160055Z AUTO 17004KT 10SM CLR 35/17 A2993 RMK AO2
KAQR 160035Z AUTO 17004KT 10SM CLR 35/17 A2993 RMK AO2
KAQR 160015Z AUTO 19004KT 10SM CLR 35/17 A2992 RMK AO2
KAQR 152355Z AUTO 17005KT 10SM CLR 36/17 A2992 RMK AO2